createdAt,value
2017-08-25T00:00:40.294Z,20.93
2017-08-25T00:05:42.792Z,20.93
2017-08-25T00:10:45.119Z,20.86
2017-08-25T00:15:47.288Z,20.80
2017-08-25T00:20:49.537Z,20.83
2017-08-25T00:25:51.831Z,20.80
2017-08-25T00:30:54.133Z,20.71
2017-08-25T00:35:56.427Z,20.56
2017-08-25T00:40:58.848Z,20.55
2017-08-25T00:46:01.194Z,20.54
2017-08-25T00:51:03.472Z,20.55
2017-08-25T00:56:07.556Z,20.52
2017-08-25T01:01:09.914Z,20.45
2017-08-25T01:06:12.251Z,20.44
2017-08-25T01:11:14.569Z,20.39
2017-08-25T01:16:16.861Z,20.50
2017-08-25T01:21:19.350Z,20.51
2017-08-25T01:26:21.879Z,20.52
2017-08-25T01:31:24.178Z,20.50
2017-08-25T01:36:26.582Z,20.39
2017-08-25T01:41:29.185Z,20.22
2017-08-25T01:46:31.800Z,20.06
2017-08-25T01:51:34.367Z,19.92
2017-08-25T01:56:37.044Z,19.73
2017-08-25T02:01:39.371Z,19.56
2017-08-25T02:06:41.702Z,19.56
2017-08-25T02:11:44.106Z,19.51
2017-08-25T02:21:55.175Z,19.37
2017-08-25T02:26:57.559Z,19.29
2017-08-25T02:31:59.885Z,19.20
2017-08-25T02:37:02.203Z,19.13
2017-08-25T02:42:04.484Z,19.01
2017-08-25T02:47:06.835Z,18.97
2017-08-25T02:52:09.364Z,18.96
2017-08-25T02:57:12.349Z,18.93
2017-08-25T03:02:15.698Z,18.89
2017-08-25T03:07:18.015Z,18.91
2017-08-25T03:12:20.462Z,18.85
2017-08-25T03:17:26.776Z,18.72
2017-08-25T03:22:29.147Z,18.62
2017-08-25T03:27:34.770Z,18.55
2017-08-25T03:32:41.136Z,18.46
2017-08-25T03:37:48.356Z,18.42
2017-08-25T03:42:55.181Z,18.41
2017-08-25T03:48:02.236Z,18.32
2017-08-25T03:53:09.379Z,18.29
2017-08-25T03:58:15.835Z,18.24
2017-08-25T04:03:23.444Z,18.18
2017-08-25T04:08:29.847Z,18.14
2017-08-25T04:13:36.125Z,18.08
2017-08-25T04:18:46.166Z,18.13
2017-08-25T04:23:53.301Z,18.00
2017-08-25T04:28:58.853Z,17.91
2017-08-25T04:34:06.997Z,17.94
2017-08-25T04:39:09.543Z,17.96
2017-08-25T04:44:11.993Z,17.97
2017-08-25T04:49:14.475Z,17.99
2017-08-25T04:54:16.754Z,18.09
2017-08-25T04:59:19.025Z,18.02
2017-08-25T05:04:21.442Z,18.20
2017-08-25T05:09:23.586Z,18.28
2017-08-25T05:14:25.941Z,18.43
2017-08-25T05:19:28.363Z,18.52
2017-08-25T05:24:30.668Z,18.60
2017-08-25T05:29:33.097Z,18.68
2017-08-25T05:34:35.517Z,18.84
2017-08-25T05:39:37.730Z,18.97
2017-08-25T05:44:39.964Z,19.24
2017-08-25T05:49:42.217Z,19.47
2017-08-25T05:54:44.403Z,19.69
2017-08-25T05:59:46.720Z,19.90
2017-08-25T06:04:49.104Z,20.06
2017-08-25T06:09:51.378Z,20.38
2017-08-25T06:14:53.506Z,20.65
2017-08-25T06:19:55.860Z,20.85
2017-08-25T06:24:58.325Z,21.05
2017-08-25T06:30:00.536Z,21.30
2017-08-25T06:35:02.770Z,21.50
2017-08-25T06:40:04.981Z,21.78
2017-08-25T06:45:07.181Z,21.96
2017-08-25T06:50:09.623Z,22.07
2017-08-25T06:55:11.954Z,22.13
2017-08-25T07:00:14.273Z,22.22
2017-08-25T07:05:16.557Z,22.31
2017-08-25T07:10:18.482Z,22.31
2017-08-25T07:15:20.913Z,22.26
2017-08-25T07:20:23.131Z,22.32
2017-08-25T07:25:25.304Z,22.42
2017-08-25T07:30:27.508Z,22.51
2017-08-25T07:35:29.793Z,22.69
2017-08-25T07:40:32.028Z,22.88
2017-08-25T07:45:34.309Z,22.91
2017-08-25T07:50:37.384Z,23.11
2017-08-25T07:55:39.584Z,23.20
2017-08-25T08:00:41.774Z,23.43
2017-08-25T08:05:44.178Z,23.38
2017-08-25T08:10:46.557Z,23.14
2017-08-25T08:15:48.987Z,23.19
2017-08-25T08:20:51.332Z,23.24
2017-08-25T08:25:53.784Z,23.11
2017-08-25T08:30:55.992Z,23.16
2017-08-25T08:35:58.395Z,23.38
2017-08-25T08:41:00.628Z,23.56
2017-08-25T08:46:02.927Z,23.52
2017-08-25T08:51:05.188Z,23.69
2017-08-25T08:56:07.580Z,23.88
2017-08-25T09:01:09.880Z,24.07
2017-08-25T09:06:18.291Z,24.22
2017-08-25T09:11:20.549Z,24.45
2017-08-25T09:16:23.182Z,24.47
2017-08-25T09:21:25.495Z,24.52
2017-08-25T09:26:27.725Z,24.67
2017-08-25T09:31:30.003Z,24.88
2017-08-25T09:36:32.456Z,25.03
2017-08-25T09:41:34.829Z,25.10
2017-08-25T09:46:37.152Z,25.27
2017-08-25T09:51:40.649Z,25.44
2017-08-25T09:56:42.915Z,25.75
2017-08-25T10:01:45.189Z,25.85
2017-08-25T10:06:47.480Z,25.69
2017-08-25T10:11:49.881Z,25.74
2017-08-25T10:16:52.295Z,25.85
2017-08-25T10:21:54.832Z,25.66
2017-08-25T10:26:57.304Z,25.72
2017-08-25T10:32:01.457Z,25.82
2017-08-25T10:37:21.936Z,25.87
2017-08-25T10:42:42.628Z,25.80
2017-08-25T10:47:44.922Z,26.08
2017-08-25T10:52:47.215Z,26.39
2017-08-25T10:57:49.511Z,26.54
2017-08-25T11:02:53.006Z,26.63
2017-08-25T11:07:55.463Z,26.50
2017-08-25T11:12:59.030Z,26.74
2017-08-25T11:18:02.318Z,26.93
2017-08-25T11:23:04.695Z,26.98
2017-08-25T11:28:07.033Z,27.09
2017-08-25T11:33:10.703Z,27.12
2017-08-25T11:38:12.904Z,27.58
2017-08-25T11:43:15.081Z,27.51
2017-08-25T11:48:17.236Z,27.17
2017-08-25T11:53:19.531Z,26.86
2017-08-25T11:58:21.694Z,26.72
2017-08-25T12:03:23.977Z,26.81
2017-08-25T12:08:26.297Z,27.43
2017-08-25T12:13:28.515Z,27.41
2017-08-25T12:18:30.900Z,27.49
2017-08-25T12:23:33.310Z,27.75
2017-08-25T12:28:36.098Z,28.20
2017-08-25T12:33:38.946Z,28.51
2017-08-25T12:38:41.291Z,28.63
2017-08-25T12:43:43.587Z,28.33
2017-08-25T12:48:46.660Z,28.21
2017-08-25T12:53:48.927Z,27.70
2017-08-25T12:58:51.204Z,27.28
2017-08-25T13:03:53.520Z,27.00
2017-08-25T13:08:55.754Z,27.22
2017-08-25T13:13:58.021Z,27.43
2017-08-25T13:19:00.215Z,27.58
2017-08-25T13:24:02.386Z,27.98
2017-08-25T13:29:04.740Z,28.06
2017-08-25T13:34:07.133Z,28.11
2017-08-25T13:39:09.460Z,27.88
2017-08-25T13:44:11.741Z,27.61
2017-08-25T13:49:14.140Z,27.74
2017-08-25T13:54:16.073Z,28.17
2017-08-25T13:59:18.001Z,28.25
2017-08-25T14:04:20.040Z,28.33
2017-08-25T14:09:22.257Z,28.28
2017-08-25T14:14:24.170Z,28.24
2017-08-25T14:19:26.086Z,28.25
2017-08-25T14:24:28.103Z,28.24
2017-08-25T14:29:30.028Z,28.58
2017-08-25T14:34:31.982Z,28.73
2017-08-25T14:39:33.936Z,29.26
2017-08-25T14:44:36.271Z,29.23
2017-08-25T14:49:39.492Z,28.88
2017-08-25T14:54:42.844Z,28.70
2017-08-25T14:59:46.247Z,28.25
2017-08-25T15:04:49.392Z,28.96
2017-08-25T15:09:51.792Z,29.46
2017-08-25T15:14:54.621Z,29.27
2017-08-25T15:19:57.107Z,28.75
2017-08-25T15:24:59.377Z,28.39
2017-08-25T15:30:01.714Z,28.21
2017-08-25T15:35:04.254Z,28.33
2017-08-25T15:40:06.549Z,28.43
2017-08-25T15:45:08.910Z,28.12
2017-08-25T15:50:11.240Z,27.91
2017-08-25T15:55:13.394Z,27.82
2017-08-25T16:00:15.607Z,27.48
2017-08-25T16:05:17.943Z,27.31
2017-08-25T16:10:20.222Z,27.03
2017-08-25T16:15:22.489Z,26.93
2017-08-25T16:20:24.821Z,26.73
2017-08-25T16:25:27.210Z,26.38
2017-08-25T16:30:29.405Z,26.23
2017-08-25T16:35:31.664Z,25.95
2017-08-25T16:40:34.020Z,26.00
2017-08-25T16:45:36.303Z,25.98
2017-08-25T16:50:38.434Z,25.86
2017-08-25T16:55:40.602Z,25.78
2017-08-25T17:00:42.838Z,25.55
2017-08-25T17:05:44.808Z,25.55
2017-08-25T17:10:46.768Z,25.41
2017-08-25T17:15:48.841Z,25.27
2017-08-25T17:20:50.883Z,25.17
2017-08-25T17:25:53.106Z,24.98
2017-08-25T17:30:55.365Z,24.98
2017-08-25T17:35:57.770Z,24.81
2017-08-25T17:40:59.688Z,24.62
2017-08-25T17:46:01.639Z,24.61
2017-08-25T17:51:03.695Z,24.63
2017-08-25T17:56:07.143Z,24.32
2017-08-25T18:01:10.041Z,24.18
2017-08-25T18:06:13.890Z,24.08
2017-08-25T18:11:16.065Z,24.15
2017-08-25T18:16:19.619Z,24.04
2017-08-25T18:21:22.794Z,23.72
2017-08-25T18:26:25.070Z,23.40
2017-08-25T18:31:27.291Z,23.26
2017-08-25T18:36:29.469Z,23.26
2017-08-25T18:41:32.126Z,23.15
2017-08-25T18:46:34.404Z,23.11
2017-08-25T18:51:36.686Z,23.10
2017-08-25T18:56:38.895Z,22.92
2017-08-25T19:01:41.146Z,22.82
2017-08-25T19:06:43.475Z,22.81
2017-08-25T19:11:45.772Z,22.79
2017-08-25T19:16:48.001Z,22.90
2017-08-25T19:21:50.310Z,22.84
2017-08-25T19:26:52.498Z,22.50
2017-08-25T19:31:54.630Z,22.34
2017-08-25T19:36:56.826Z,22.33
2017-08-25T19:41:59.239Z,22.30
2017-08-25T19:47:03.832Z,22.06
2017-08-25T19:52:06.353Z,22.05
2017-08-25T19:57:08.753Z,22.04
2017-08-25T20:02:14.947Z,22.12
2017-08-25T20:07:20.577Z,21.92
2017-08-25T20:12:25.671Z,22.08
2017-08-25T20:17:32.332Z,22.07
2017-08-25T20:22:34.964Z,21.80
2017-08-25T20:27:38.217Z,21.79
2017-08-25T20:32:41.215Z,21.62
2017-08-25T20:37:49.186Z,21.62
2017-08-25T20:42:56.780Z,21.59
2017-08-25T20:48:00.670Z,21.69
2017-08-25T20:53:04.369Z,21.57
2017-08-25T20:58:07.787Z,21.50
2017-08-25T21:03:10.113Z,21.39
2017-08-25T21:08:16.454Z,21.23
2017-08-25T21:13:24.596Z,21.05
2017-08-25T21:18:28.308Z,20.87
2017-08-25T21:23:35.809Z,20.91
2017-08-25T21:28:42.940Z,20.98
2017-08-25T21:33:46.346Z,21.06
2017-08-25T21:38:53.674Z,21.06
2017-08-25T21:43:56.261Z,21.00
2017-08-25T21:49:00.269Z,20.89
2017-08-25T21:54:08.252Z,20.82
2017-08-25T21:59:10.337Z,20.58
2017-08-25T22:04:15.737Z,20.51
2017-08-25T22:09:19.875Z,20.58
2017-08-25T22:14:22.459Z,20.47
2017-08-25T22:19:28.831Z,20.52
2017-08-25T22:24:32.006Z,20.47
2017-08-25T22:29:38.517Z,20.33
2017-08-25T22:34:43.847Z,20.40
2017-08-25T22:39:47.617Z,20.28
2017-08-25T22:44:53.069Z,20.10
2017-08-25T22:49:57.708Z,20.09
2017-08-25T22:55:01.246Z,20.03
2017-08-25T23:00:05.851Z,20.04
2017-08-25T23:05:09.180Z,20.01
2017-08-25T23:10:17.392Z,20.00
2017-08-25T23:15:20.608Z,19.90
2017-08-25T23:20:23.719Z,19.73
2017-08-25T23:25:32.290Z,19.83
2017-08-25T23:30:34.247Z,19.98
2017-08-25T23:35:39.454Z,19.91
2017-08-25T23:40:47.392Z,20.05
2017-08-25T23:45:54.500Z,20.13
2017-08-25T23:50:56.956Z,19.84
2017-08-25T23:56:03.355Z,19.73
